createdAt,value
2022-11-07T00:00:31.750Z,3.37
2022-11-07T00:03:00.059Z,3.07
2022-11-07T00:05:28.332Z,3.35
2022-11-07T00:07:57.949Z,3.03
2022-11-07T00:10:26.177Z,3.63
2022-11-07T00:12:54.794Z,3.10
2022-11-07T00:15:23.010Z,3.37
2022-11-07T00:17:51.233Z,3.73
2022-11-07T00:20:19.480Z,3.55
2022-11-07T00:22:47.749Z,3.70
2022-11-07T00:25:17.601Z,3.80
2022-11-07T00:27:45.897Z,3.40
2022-11-07T00:30:14.802Z,3.57
2022-11-07T00:32:43.030Z,3.63
2022-11-07T00:35:11.408Z,3.43
2022-11-07T00:37:39.676Z,3.70
2022-11-07T00:40:09.692Z,3.80
2022-11-07T00:42:39.335Z,4.07
2022-11-07T00:45:08.729Z,3.80
2022-11-07T00:47:36.954Z,3.83
2022-11-07T00:50:05.799Z,3.50
2022-11-07T00:52:34.075Z,3.03
2022-11-07T00:55:02.311Z,3.87
2022-11-07T00:57:31.803Z,3.90
2022-11-07T01:00:01.412Z,3.70
2022-11-07T01:02:30.119Z,3.33
2022-11-07T01:05:12.990Z,3.33
2022-11-07T01:07:41.410Z,3.40
2022-11-07T01:10:09.850Z,3.73
2022-11-07T01:12:38.124Z,3.90
2022-11-07T01:15:08.745Z,3.47
2022-11-07T01:17:36.977Z,3.80
2022-11-07T01:20:06.101Z,4.00
2022-11-07T01:22:34.370Z,4.20
2022-11-07T01:25:02.576Z,3.87
2022-11-07T01:27:30.868Z,4.00
2022-11-07T01:29:59.793Z,3.47
2022-11-07T01:32:29.393Z,4.00
2022-11-07T01:34:57.632Z,4.37
2022-11-07T01:37:25.876Z,4.10
2022-11-07T01:39:54.092Z,3.77
2022-11-07T01:42:23.261Z,3.97
2022-11-07T01:44:55.594Z,4.37
2022-11-07T01:47:26.675Z,4.33
2022-11-07T01:49:56.737Z,4.67
2022-11-07T01:52:28.418Z,4.60
2022-11-07T01:55:02.049Z,4.47
2022-11-07T01:57:34.363Z,4.40
2022-11-07T02:00:06.699Z,4.40
2022-11-07T02:02:35.833Z,4.10
2022-11-07T02:05:07.610Z,4.97
2022-11-07T02:07:36.724Z,4.50
2022-11-07T02:10:06.388Z,3.90
2022-11-07T02:12:34.841Z,4.50
2022-11-07T02:15:03.338Z,4.87
2022-11-07T02:17:31.630Z,4.20
2022-11-07T02:19:59.876Z,4.50
2022-11-07T02:22:36.598Z,4.97
2022-11-07T02:25:09.613Z,5.20
2022-11-07T02:27:39.402Z,4.40
2022-11-07T02:30:10.692Z,4.33
2022-11-07T02:32:39.049Z,4.33
2022-11-07T02:35:28.905Z,4.03
2022-11-07T02:37:57.605Z,4.80
2022-11-07T02:40:28.545Z,5.10
2022-11-07T02:42:57.340Z,4.47
2022-11-07T02:45:29.060Z,4.20
2022-11-07T02:47:57.638Z,4.57
2022-11-07T02:50:26.308Z,4.50
2022-11-07T02:52:54.531Z,4.90
2022-11-07T02:55:22.985Z,4.50
2022-11-07T02:57:52.584Z,4.90
2022-11-07T03:00:20.826Z,4.73
2022-11-07T03:02:49.272Z,4.97
2022-11-07T03:05:20.091Z,5.27
2022-11-07T03:07:49.947Z,4.97
2022-11-07T03:10:19.419Z,5.23
2022-11-07T03:12:47.996Z,4.77
2022-11-07T03:15:17.640Z,4.70
2022-11-07T03:17:45.846Z,5.07
2022-11-07T03:20:14.084Z,5.40
2022-11-07T03:22:42.463Z,5.03
2022-11-07T03:25:11.200Z,5.17
2022-11-07T03:27:47.674Z,4.97
2022-11-07T03:30:18.159Z,4.97
2022-11-07T03:32:46.931Z,5.43
2022-11-07T03:35:15.390Z,5.60
2022-11-07T03:37:46.763Z,5.50
2022-11-07T03:40:15.340Z,5.70
2022-11-07T03:42:45.264Z,5.50
2022-11-07T03:45:15.011Z,5.37
2022-11-07T03:47:46.029Z,5.17
2022-11-07T03:50:16.685Z,5.27
2022-11-07T03:52:45.275Z,5.20
2022-11-07T03:55:16.112Z,4.70
2022-11-07T03:57:44.412Z,5.10
2022-11-07T04:00:14.653Z,4.63
2022-11-07T04:02:44.996Z,4.73
2022-11-07T04:05:13.357Z,5.20
2022-11-07T04:07:41.626Z,4.73
2022-11-07T04:10:10.188Z,4.63
2022-11-07T04:12:55.959Z,4.87
2022-11-07T04:15:41.464Z,5.23
2022-11-07T04:18:11.097Z,5.73
2022-11-07T04:20:39.311Z,4.73
2022-11-07T04:23:07.597Z,5.77
2022-11-07T04:25:53.124Z,5.13
2022-11-07T04:28:21.393Z,4.83
2022-11-07T04:30:49.655Z,5.47
2022-11-07T04:33:19.754Z,4.97
2022-11-07T04:35:47.998Z,5.00
2022-11-07T04:38:16.357Z,4.70
2022-11-07T04:40:44.580Z,4.33
2022-11-07T04:43:13.136Z,4.77
2022-11-07T04:45:41.626Z,4.33
2022-11-07T04:48:10.895Z,5.07
2022-11-07T04:50:40.940Z,4.90
2022-11-07T04:53:09.221Z,5.60
2022-11-07T04:55:37.433Z,4.93
2022-11-07T04:58:05.760Z,4.80
2022-11-07T05:00:34.022Z,6.10
2022-11-07T05:03:02.298Z,5.67
2022-11-07T05:05:30.593Z,4.70
2022-11-07T05:08:00.218Z,5.33
2022-11-07T05:10:30.177Z,4.77
2022-11-07T05:12:58.615Z,5.30
2022-11-07T05:15:26.899Z,4.60
2022-11-07T05:17:55.145Z,5.73
2022-11-07T05:20:29.674Z,5.00
2022-11-07T05:23:18.014Z,4.70
2022-11-07T05:25:48.640Z,5.17
2022-11-07T05:28:25.757Z,5.80
2022-11-07T05:31:00.083Z,5.13
2022-11-07T05:33:28.821Z,5.47
2022-11-07T05:35:57.397Z,5.23
2022-11-07T05:38:27.055Z,5.30
2022-11-07T05:40:55.285Z,6.03
2022-11-07T05:43:23.526Z,5.70
2022-11-07T05:45:52.547Z,5.10
2022-11-07T05:48:20.857Z,4.83
2022-11-07T05:50:49.087Z,5.93
2022-11-07T05:53:17.798Z,5.50
2022-11-07T05:55:48.019Z,5.77
2022-11-07T05:58:17.280Z,6.30
2022-11-07T06:00:47.241Z,5.27
2022-11-07T06:03:16.091Z,5.83
2022-11-07T06:05:45.038Z,6.20
2022-11-07T06:08:14.807Z,5.60
2022-11-07T06:10:44.427Z,5.90
2022-11-07T06:13:16.746Z,4.83
2022-11-07T06:15:46.382Z,5.77
2022-11-07T06:18:16.824Z,4.93
2022-11-07T06:20:45.316Z,4.87
2022-11-07T06:23:14.389Z,5.47
2022-11-07T06:25:42.874Z,4.93
2022-11-07T06:28:14.859Z,5.83
2022-11-07T06:30:43.965Z,4.87
2022-11-07T06:33:14.517Z,5.73
2022-11-07T06:35:43.061Z,6.30
2022-11-07T06:38:12.686Z,5.07
2022-11-07T06:40:42.697Z,5.32
2022-11-07T06:43:15.480Z,5.47
2022-11-07T06:45:44.786Z,4.57
2022-11-07T06:48:13.742Z,4.80
2022-11-07T06:50:42.026Z,4.63
2022-11-07T06:53:12.090Z,4.90
2022-11-07T06:55:41.154Z,5.30
2022-11-07T06:58:09.521Z,5.03
2022-11-07T07:00:39.274Z,5.30
2022-11-07T07:03:07.757Z,4.70
2022-11-07T07:05:36.336Z,5.23
2022-11-07T07:08:05.479Z,5.47
2022-11-07T07:10:37.720Z,5.30
2022-11-07T07:13:06.021Z,4.33
2022-11-07T07:15:49.400Z,5.20
2022-11-07T07:18:20.925Z,5.60
2022-11-07T07:20:49.649Z,5.17
2022-11-07T07:23:18.568Z,5.17
2022-11-07T07:25:47.071Z,5.70
2022-11-07T07:28:15.482Z,4.80
2022-11-07T07:30:48.660Z,4.87
2022-11-07T07:33:21.168Z,5.00
2022-11-07T07:35:49.476Z,5.00
2022-11-07T07:38:18.148Z,4.93
2022-11-07T07:40:46.377Z,5.23
2022-11-07T07:43:15.031Z,4.33
2022-11-07T07:45:43.607Z,4.83
2022-11-07T07:48:11.832Z,4.53
2022-11-07T07:50:41.510Z,4.17
2022-11-07T07:53:09.741Z,4.17
2022-11-07T07:55:38.088Z,4.47
2022-11-07T07:58:07.342Z,4.43
2022-11-07T08:00:35.853Z,4.57
2022-11-07T08:03:05.108Z,4.63
2022-11-07T08:05:33.465Z,5.30
2022-11-07T08:08:03.313Z,4.80
2022-11-07T08:10:46.918Z,4.97
2022-11-07T08:13:15.366Z,4.50
2022-11-07T08:15:43.754Z,4.50
2022-11-07T08:18:11.993Z,4.53
2022-11-07T08:20:40.337Z,4.00
2022-11-07T08:23:16.434Z,4.83
2022-11-07T08:25:50.063Z,4.30
2022-11-07T08:28:18.327Z,4.70
2022-11-07T08:30:46.587Z,4.17
2022-11-07T08:33:15.088Z,3.90
2022-11-07T08:35:43.615Z,3.87
2022-11-07T08:38:13.317Z,4.10
2022-11-07T08:40:42.037Z,4.47
2022-11-07T08:43:10.249Z,4.20
2022-11-07T08:45:38.481Z,3.83
2022-11-07T08:48:07.485Z,3.63
2022-11-07T08:50:35.754Z,5.20
2022-11-07T08:53:04.013Z,3.40
2022-11-07T08:55:34.090Z,4.37
2022-11-07T08:58:03.085Z,4.10
2022-11-07T09:00:31.970Z,3.93
2022-11-07T09:05:51.790Z,3.93
2022-11-07T09:08:20.577Z,4.00
2022-11-07T09:10:51.030Z,4.07
2022-11-07T09:13:20.868Z,4.10
2022-11-07T09:15:51.321Z,3.63
2022-11-07T09:18:20.281Z,3.90
2022-11-07T09:20:48.565Z,3.67
2022-11-07T09:23:17.227Z,3.77
2022-11-07T09:25:46.168Z,3.60
2022-11-07T09:28:16.415Z,4.07
2022-11-07T09:30:44.682Z,4.30
2022-11-07T09:33:13.069Z,4.13
2022-11-07T09:35:41.461Z,4.07
2022-11-07T09:38:09.676Z,4.60
2022-11-07T09:40:44.688Z,4.77
2022-11-07T09:43:44.990Z,4.57
2022-11-07T09:46:28.688Z,4.93
2022-11-07T09:49:02.401Z,5.30
2022-11-07T09:51:36.855Z,5.87
2022-11-07T09:54:12.580Z,4.30
2022-11-07T09:56:44.244Z,5.40
2022-11-07T09:59:21.600Z,4.93
2022-11-07T10:01:50.135Z,5.00
2022-11-07T10:04:26.163Z,4.60
2022-11-07T10:07:00.815Z,4.97
2022-11-07T10:09:39.354Z,5.30
2022-11-07T10:12:17.513Z,5.47
2022-11-07T10:14:54.436Z,4.43
2022-11-07T10:17:31.411Z,4.93
2022-11-07T10:20:12.170Z,5.70
2022-11-07T10:22:53.508Z,5.03
2022-11-07T10:25:25.826Z,5.37
2022-11-07T10:28:06.463Z,5.03
2022-11-07T10:30:36.429Z,4.83
2022-11-07T10:33:08.765Z,4.93
2022-11-07T10:35:40.629Z,4.50
2022-11-07T10:38:19.451Z,4.80
2022-11-07T10:40:48.574Z,5.05
2022-11-07T10:43:24.054Z,4.77
2022-11-07T10:45:56.379Z,4.70
2022-11-07T10:48:25.828Z,5.15
2022-11-07T10:50:54.617Z,4.22
2022-11-07T10:53:25.193Z,5.93
2022-11-07T10:55:54.612Z,5.03
2022-11-07T10:58:25.625Z,5.13
2022-11-07T11:01:07.113Z,4.32
2022-11-07T11:03:45.108Z,4.95
2022-11-07T11:06:24.248Z,4.67
2022-11-07T11:08:53.957Z,4.65
2022-11-07T11:11:34.412Z,4.53
2022-11-07T11:14:05.076Z,4.75
2022-11-07T11:16:37.737Z,4.87
2022-11-07T11:19:07.975Z,4.85
2022-11-07T11:21:44.992Z,5.07
2022-11-07T11:24:38.498Z,5.57
2022-11-07T11:27:14.243Z,4.57
2022-11-07T11:29:49.203Z,5.22
2022-11-07T11:32:25.212Z,4.40
2022-11-07T11:35:03.043Z,5.65
2022-11-07T11:37:34.374Z,4.75
2022-11-07T11:40:12.833Z,4.83
2022-11-07T11:42:49.769Z,4.85
2022-11-07T11:45:22.916Z,4.72
2022-11-07T11:48:00.617Z,4.67
2022-11-07T11:50:35.564Z,4.63
2022-11-07T11:53:03.857Z,5.20
2022-11-07T11:55:39.810Z,4.53
2022-11-07T11:58:20.908Z,5.47
2022-11-07T12:00:58.806Z,4.43
2022-11-07T12:03:48.029Z,4.70
2022-11-07T12:06:17.501Z,4.60
2022-11-07T12:09:00.728Z,5.50
2022-11-07T12:11:38.220Z,5.27
2022-11-07T12:14:21.795Z,5.72
2022-11-07T12:16:59.698Z,5.72
2022-11-07T12:19:33.322Z,5.68
2022-11-07T12:22:11.048Z,5.47
2022-11-07T12:24:47.291Z,5.88
2022-11-07T12:27:27.592Z,6.43
2022-11-07T12:30:09.906Z,5.47
2022-11-07T12:32:50.557Z,6.03
2022-11-07T12:35:36.492Z,5.65
2022-11-07T12:38:23.503Z,4.60
2022-11-07T12:40:59.199Z,5.10
2022-11-07T12:43:41.782Z,6.20
2022-11-07T12:46:17.791Z,6.03
2022-11-07T12:49:13.411Z,5.78
2022-11-07T12:51:51.306Z,5.15
2022-11-07T12:54:41.154Z,5.75
2022-11-07T12:57:18.007Z,5.80
2022-11-07T12:59:51.742Z,5.53
2022-11-07T13:02:52.249Z,5.10
2022-11-07T13:05:44.308Z,5.45
2022-11-07T13:08:18.785Z,5.13
2022-11-07T13:10:54.763Z,4.63
2022-11-07T13:13:29.353Z,4.93
2022-11-07T13:16:15.373Z,4.13
2022-11-07T13:18:44.171Z,4.72
2022-11-07T13:21:12.419Z,5.10
2022-11-07T13:23:42.162Z,4.88
2022-11-07T13:26:40.203Z,5.30
2022-11-07T13:29:00.284Z,5.20
2022-11-07T13:31:34.453Z,5.18
2022-11-07T13:34:22.668Z,5.65
2022-11-07T13:36:55.566Z,5.22
2022-11-07T13:39:25.934Z,5.35
2022-11-07T13:41:55.233Z,4.70
2022-11-07T13:44:27.870Z,5.18
2022-11-07T13:46:57.893Z,5.05
2022-11-07T13:49:28.814Z,5.43
2022-11-07T13:52:02.390Z,5.53
2022-11-07T13:54:39.164Z,6.05
2022-11-07T13:57:14.342Z,5.38
2022-11-07T13:59:46.792Z,5.03
2022-11-07T14:02:22.035Z,5.05
2022-11-07T14:05:14.758Z,5.18
2022-11-07T14:07:43.156Z,5.05
2022-11-07T14:10:23.265Z,5.68
2022-11-07T14:12:53.457Z,5.13
2022-11-07T14:15:22.193Z,5.45
2022-11-07T14:17:50.526Z,5.72
2022-11-07T14:20:20.216Z,5.35
2022-11-07T14:22:53.857Z,5.30
2022-11-07T14:25:26.841Z,5.80
2022-11-07T14:27:55.111Z,5.43
2022-11-07T14:30:24.978Z,5.27
2022-11-07T14:32:55.081Z,5.80
2022-11-07T14:35:25.812Z,6.00
2022-11-07T14:37:54.208Z,5.33
2022-11-07T14:40:25.062Z,5.33
2022-11-07T14:42:54.010Z,5.40
2022-11-07T14:45:56.596Z,5.60
2022-11-07T14:48:14.276Z,5.73
2022-11-07T14:50:44.266Z,6.10
2022-11-07T14:53:19.725Z,5.37
2022-11-07T14:55:53.323Z,4.70
2022-11-07T14:58:30.187Z,5.30
2022-11-07T15:01:10.856Z,6.30
2022-11-07T15:03:51.345Z,5.77
2022-11-07T15:06:33.215Z,6.20
2022-11-07T15:09:04.655Z,6.40
2022-11-07T15:11:36.034Z,6.40
2022-11-07T15:14:06.942Z,6.67
2022-11-07T15:16:38.953Z,6.93
2022-11-07T15:19:11.178Z,6.37
2022-11-07T15:21:40.674Z,6.27
2022-11-07T15:24:43.858Z,6.33
2022-11-07T15:27:22.102Z,5.90
2022-11-07T15:29:52.999Z,6.93
2022-11-07T15:32:23.540Z,7.33
2022-11-07T15:37:42.725Z,6.63
2022-11-07T15:40:17.111Z,7.43
2022-11-07T15:42:46.755Z,7.63
2022-11-07T15:45:15.064Z,8.70
2022-11-07T15:47:43.417Z,7.47
2022-11-07T15:50:17.496Z,8.03
2022-11-07T15:52:47.101Z,9.47
2022-11-07T15:55:17.819Z,9.10
2022-11-07T15:57:50.019Z,9.50
2022-11-07T16:00:20.545Z,9.37
2022-11-07T16:02:48.990Z,9.03
2022-11-07T16:05:19.190Z,8.50
2022-11-07T16:07:47.852Z,9.43
2022-11-07T16:10:20.801Z,9.00
2022-11-07T16:12:50.801Z,9.63
2022-11-07T16:15:21.135Z,9.23
2022-11-07T16:17:49.459Z,10.03
2022-11-07T16:20:20.461Z,9.83
2022-11-07T16:22:50.285Z,9.87
2022-11-07T16:25:22.326Z,9.93
2022-11-07T16:27:54.737Z,8.97
2022-11-07T16:30:23.980Z,9.77
2022-11-07T16:32:52.267Z,11.23
2022-11-07T16:35:20.519Z,10.87
2022-11-07T16:37:48.934Z,11.17
2022-11-07T16:40:20.097Z,11.10
2022-11-07T16:42:48.625Z,10.90
2022-11-07T16:45:20.592Z,10.90
2022-11-07T16:47:49.163Z,11.33
2022-11-07T16:50:18.729Z,11.30
2022-11-07T16:52:46.937Z,10.47
2022-11-07T16:55:16.803Z,10.40
2022-11-07T16:57:45.882Z,12.67
2022-11-07T17:00:21.531Z,12.37
2022-11-07T17:02:50.250Z,11.73
2022-11-07T17:05:18.992Z,11.93
2022-11-07T17:07:47.285Z,12.73
2022-11-07T17:10:18.177Z,12.30
2022-11-07T17:12:46.408Z,12.77
2022-11-07T17:15:14.730Z,13.43
2022-11-07T17:17:44.370Z,14.83
2022-11-07T17:20:48.717Z,14.80
2022-11-07T17:23:09.613Z,16.47
2022-11-07T17:25:38.545Z,15.93
2022-11-07T17:28:07.253Z,16.50
2022-11-07T17:30:35.591Z,16.50
2022-11-07T17:33:05.519Z,15.13
2022-11-07T17:35:34.275Z,15.23
2022-11-07T17:38:02.618Z,17.00
2022-11-07T17:40:32.658Z,19.45
2022-11-07T17:43:01.414Z,17.73
2022-11-07T17:45:29.840Z,19.10
2022-11-07T17:47:58.103Z,18.70
2022-11-07T17:50:27.878Z,18.27
2022-11-07T17:52:56.149Z,17.83
2022-11-07T17:55:25.087Z,17.63
2022-11-07T17:57:53.608Z,21.00
2022-11-07T18:00:23.712Z,18.77
2022-11-07T18:02:53.486Z,19.87
2022-11-07T18:05:26.402Z,19.23
2022-11-07T18:07:58.455Z,17.97
2022-11-07T18:10:26.740Z,18.77
2022-11-07T18:12:58.797Z,17.10
2022-11-07T18:15:27.355Z,16.57
2022-11-07T18:17:55.705Z,16.03
2022-11-07T18:20:24.182Z,15.63
2022-11-07T18:22:52.461Z,15.67
2022-11-07T18:25:22.133Z,14.97
2022-11-07T18:27:50.771Z,15.93
2022-11-07T18:30:19.081Z,14.27
2022-11-07T18:32:47.352Z,14.07
2022-11-07T18:35:15.806Z,14.80
2022-11-07T18:37:45.485Z,14.53
2022-11-07T18:40:14.168Z,16.63
2022-11-07T18:42:46.728Z,16.87
2022-11-07T18:45:15.307Z,16.50
2022-11-07T18:47:43.605Z,18.17
2022-11-07T18:50:12.542Z,17.80
2022-11-07T18:52:41.431Z,18.43
2022-11-07T18:55:11.188Z,19.20
2022-11-07T18:57:39.488Z,17.30
2022-11-07T19:00:13.654Z,16.37
2022-11-07T19:02:42.259Z,16.13
2022-11-07T19:05:10.706Z,16.83
2022-11-07T19:07:42.948Z,16.70
2022-11-07T19:10:12.288Z,16.33
2022-11-07T19:12:40.695Z,15.67
2022-11-07T19:15:12.207Z,15.63
2022-11-07T19:17:40.505Z,16.60
2022-11-07T19:20:10.977Z,15.90
2022-11-07T19:22:39.502Z,17.33
2022-11-07T19:25:08.236Z,15.93
2022-11-07T19:27:37.190Z,15.80
2022-11-07T19:30:06.612Z,16.00
2022-11-07T19:32:36.350Z,15.17
2022-11-07T19:35:04.751Z,16.27
2022-11-07T19:37:32.999Z,16.03
2022-11-07T19:40:01.313Z,16.63
2022-11-07T19:42:29.812Z,16.20
2022-11-07T19:44:58.353Z,15.47
2022-11-07T19:47:26.622Z,14.83
2022-11-07T19:49:56.269Z,14.07
2022-11-07T19:52:24.555Z,14.27
2022-11-07T19:54:53.123Z,14.20
2022-11-07T19:57:21.385Z,13.77
2022-11-07T19:59:49.945Z,12.90
2022-11-07T20:02:32.343Z,14.23
2022-11-07T20:05:03.497Z,13.83
2022-11-07T20:07:31.725Z,14.60
2022-11-07T20:10:01.328Z,15.00
2022-11-07T20:12:29.817Z,15.03
2022-11-07T20:14:58.156Z,14.03
2022-11-07T20:17:26.460Z,14.20
2022-11-07T20:19:54.768Z,13.63
2022-11-07T20:22:24.411Z,14.50
2022-11-07T20:24:52.635Z,14.50
2022-11-07T20:27:21.342Z,14.83
2022-11-07T20:29:49.756Z,15.10
2022-11-07T20:32:18.062Z,16.13
2022-11-07T20:34:51.295Z,15.27
2022-11-07T20:37:23.461Z,16.88
2022-11-07T20:39:52.068Z,14.97
2022-11-07T20:42:20.567Z,15.20
2022-11-07T20:44:50.618Z,15.67
2022-11-07T20:47:19.004Z,15.30
2022-11-07T20:49:47.240Z,16.13
2022-11-07T20:52:15.499Z,15.17
2022-11-07T20:54:45.133Z,14.50
2022-11-07T20:57:13.417Z,14.50
2022-11-07T20:59:42.251Z,13.93
2022-11-07T21:02:13.002Z,15.63
2022-11-07T21:05:03.050Z,14.83
2022-11-07T21:07:29.569Z,14.53
2022-11-07T21:10:00.399Z,16.20
2022-11-07T21:12:28.676Z,15.47
2022-11-07T21:14:56.969Z,15.80
2022-11-07T21:17:25.261Z,15.60
2022-11-07T21:19:53.596Z,15.07
2022-11-07T21:22:26.627Z,15.10
2022-11-07T21:24:57.369Z,13.73
2022-11-07T21:27:27.221Z,14.10
2022-11-07T21:29:55.549Z,14.33
2022-11-07T21:32:23.748Z,14.97
2022-11-07T21:34:52.036Z,13.70
2022-11-07T21:37:20.294Z,14.17
2022-11-07T21:39:48.576Z,15.10
2022-11-07T21:42:16.854Z,13.20
2022-11-07T21:44:46.536Z,14.77
2022-11-07T21:47:14.786Z,16.07
2022-11-07T21:49:43.147Z,16.97
2022-11-07T21:52:11.495Z,15.97
2022-11-07T21:54:39.745Z,16.50
2022-11-07T21:57:08.005Z,16.57
2022-11-07T21:59:36.423Z,15.87
2022-11-07T22:02:06.171Z,16.03
2022-11-07T22:04:34.581Z,16.50
2022-11-07T22:07:03.089Z,16.87
2022-11-07T22:09:31.369Z,17.97
2022-11-07T22:11:59.631Z,19.10
2022-11-07T22:14:27.902Z,17.67
2022-11-07T22:16:57.749Z,18.77
2022-11-07T22:19:28.310Z,17.40
2022-11-07T22:21:56.561Z,18.30
2022-11-07T22:24:27.251Z,17.60
2022-11-07T22:26:57.242Z,18.10
2022-11-07T22:29:25.494Z,19.17
2022-11-07T22:31:53.742Z,20.73
2022-11-07T22:34:22.096Z,19.60
2022-11-07T22:36:51.760Z,20.17
2022-11-07T22:39:20.209Z,18.40
2022-11-07T22:41:48.593Z,18.07
2022-11-07T22:44:16.854Z,19.27
2022-11-07T22:46:45.614Z,17.97
2022-11-07T22:49:13.886Z,18.83
2022-11-07T22:51:42.120Z,19.30
2022-11-07T22:54:13.636Z,19.43
2022-11-07T22:56:42.404Z,18.37
2022-11-07T22:59:12.387Z,17.93
2022-11-07T23:01:42.468Z,18.97
2022-11-07T23:04:15.177Z,17.97
2022-11-07T23:06:43.689Z,17.90
2022-11-07T23:09:14.451Z,19.43
2022-11-07T23:11:47.626Z,20.37
2022-11-07T23:14:19.119Z,19.10
2022-11-07T23:16:49.050Z,18.90
2022-11-07T23:19:19.074Z,19.40
2022-11-07T23:21:47.403Z,17.90
2022-11-07T23:24:17.162Z,19.83
2022-11-07T23:26:46.279Z,19.50
2022-11-07T23:29:16.916Z,18.27
2022-11-07T23:31:46.971Z,18.63
2022-11-07T23:34:15.681Z,18.50
2022-11-07T23:36:44.971Z,19.40
2022-11-07T23:39:17.262Z,18.63
2022-11-07T23:41:45.673Z,18.23
2022-11-07T23:44:14.297Z,18.77
2022-11-07T23:47:00.209Z,18.53
2022-11-07T23:49:45.633Z,18.30
2022-11-07T23:52:13.985Z,19.13
2022-11-07T23:55:01.267Z,18.57
2022-11-07T23:57:29.745Z,18.77
